Tecumseh, Michigan
Current Conditions -  °F | °C
As of 9:53 PM on Wednesday 26 Nov 2014 (Local Time) from KADG Reporting Station
Overcast Overcast  
Wind Chill: 22°   Ceiling: 4200
Heat Index: 30°   Visibility: 10mi
Dew Point: 23°   Wind: 8mph
Humidity: 75%   Direction: 360°N
Pressure: 30.09"   Gusts: NA
Location:  42°N, 83.94°W
Report Text: KADG 270253Z AUTO 36007KT 10SM OVC042 M01/M05 A3009 RMK AO2 SLP201 T10111050 53003
Loading
Personal Weather Stations






























Interactive Weather Map New forecast layout! Learn more

10-Day Weather Forecast

Advertisements
Track Severe Weather on mobile